This is the latest recevied weather packets stored in our database for station/object N2OCK. If no packets are shown the sender has not sent any weather packets the latest 10 day(s).
| Time | Temp. | Humidity | Pressure | Rain* | Wind** | Luminosity | Snow |
|---|---|---|---|---|---|---|---|
| 1778252427 | 15.56° C | 46% | 1012.4 hPa | 0 mm | - | 660 W/m² | - |
| 1778252124 | 14.44° C | 48% | 1012.4 hPa | 0 mm | - | 655 W/m² | - |
| 1778251820 | 15° C | 45% | 1012.4 hPa | 0 mm | - | 646 W/m² | - |
| 1778251518 | 15° C | 45% | 1012.5 hPa | 0 mm | - | 638 W/m² | - |
| 1778251215 | 14.44° C | 46% | 1012.6 hPa | 0 mm | - | 627 W/m² | - |
| 1778250913 | 14.44° C | 45% | 1012.6 hPa | 0 mm | - | 619 W/m² | - |
| 1778250609 | 14.44° C | 49% | 1012.6 hPa | 0 mm | - | 611 W/m² | - |
| 1778250306 | 14.44° C | 49% | 1012.4 hPa | 0 mm | - | 602 W/m² | - |
| 1778250002 | 14.44° C | 49% | 1012.4 hPa | 0 mm | - | 590 W/m² | - |
| 1778249699 | 14.44° C | 48% | 1012.5 hPa | 0 mm | - | 580 W/m² | - |
| 1778249397 | 13.89° C | 50% | 1012.5 hPa | 0 mm | - | 569 W/m² | - |
| 1778249094 | 13.89° C | 47% | 1012.6 hPa | 0 mm | - | 560 W/m² | - |
| 1778248789 | 13.89° C | 48% | 1012.4 hPa | 0 mm | - | 548 W/m² | - |
| 1778248486 | 14.44° C | 47% | 1012.5 hPa | 0 mm | - | 536 W/m² | - |
| 1778248182 | 14.44° C | 52% | 1012.6 hPa | 0 mm | - | 524 W/m² | - |
| 1778247879 | 13.89° C | 55% | 1012.6 hPa | 0 mm | - | 512 W/m² | - |
| 1778247576 | 13.89° C | 55% | 1012.6 hPa | 0 mm | - | 501 W/m² | - |
| 1778247273 | 13.33° C | 58% | 1012.5 hPa | 0 mm | - | 490 W/m² | - |
| 1778246970 | 13.33° C | 57% | 1012.6 hPa | 0 mm | - | 479 W/m² | - |
| 1778246668 | 12.78° C | 59% | 1012.5 hPa | 0 mm | - | 467 W/m² | - |
| 1778246365 | 12.78° C | 61% | 1012.7 hPa | 0 mm | - | 450 W/m² | - |
| 1778246060 | 12.78° C | 62% | 1012.8 hPa | 0 mm | - | 439 W/m² | - |
| 1778245757 | 12.22° C | 63% | 1012.9 hPa | 0 mm | - | 427 W/m² | - |
| 1778245454 | 11.67° C | 66% | 1012.7 hPa | 0 mm | - | 415 W/m² | - |
| 1778245150 | 12.22° C | 64% | 1012.9 hPa | 0 mm | - | 401 W/m² | - |
* Rain latest hour (hover to see other rain measurements)
** Current wind speed in m/s (hover to see current wind gust speed)